createdAt,value
2019-01-12T00:00:01.700Z,941.49
2019-01-12T00:01:02.102Z,941.44
2019-01-12T00:02:03.339Z,941.41
2019-01-12T00:03:03.745Z,941.47
2019-01-12T00:04:04.150Z,941.52
2019-01-12T00:05:05.274Z,941.46
2019-01-12T00:06:05.789Z,941.42
2019-01-12T00:07:06.323Z,941.45
2019-01-12T00:08:07.450Z,941.47
2019-01-12T00:09:07.895Z,941.51
2019-01-12T00:10:08.296Z,941.49
2019-01-12T00:11:08.979Z,941.5
2019-01-12T00:12:09.941Z,941.54
2019-01-12T00:13:10.901Z,941.53
2019-01-12T00:14:12.321Z,941.57
2019-01-12T00:15:13.495Z,941.5
2019-01-12T00:16:14.455Z,941.54
2019-01-12T00:17:14.710Z,941.56
2019-01-12T00:18:15.166Z,941.51
2019-01-12T00:19:15.854Z,941.55
2019-01-12T00:20:16.538Z,941.58
2019-01-12T00:21:17.550Z,941.53
2019-01-12T00:22:17.953Z,941.54
2019-01-12T00:23:18.635Z,941.58
2019-01-12T00:24:19.325Z,941.58
2019-01-12T00:25:19.730Z,941.56
2019-01-12T00:26:20.133Z,941.56
2019-01-12T00:27:20.938Z,941.56
2019-01-12T00:28:21.344Z,941.52
2019-01-12T00:29:22.029Z,941.53
2019-01-12T00:30:22.713Z,941.52
2019-01-12T00:31:23.122Z,941.56
2019-01-12T00:32:24.083Z,941.54
2019-01-12T00:33:25.488Z,941.51
2019-01-12T00:34:26.616Z,941.54
2019-01-12T00:35:27.025Z,941.54
2019-01-12T00:36:28.146Z,941.58
2019-01-12T00:37:28.952Z,941.56
2019-01-12T00:38:29.634Z,941.49
2019-01-12T00:39:30.758Z,941.56
2019-01-12T00:40:31.163Z,941.53
2019-01-12T00:41:32.291Z,941.59
2019-01-12T00:42:32.695Z,941.6
2019-01-12T00:43:33.378Z,941.58
2019-01-12T00:44:33.787Z,941.62
2019-01-12T00:45:34.744Z,941.62
2019-01-12T00:46:35.150Z,941.62
2019-01-12T00:47:35.681Z,941.59
2019-01-12T00:48:36.642Z,941.66
2019-01-12T00:49:37.333Z,941.64
2019-01-12T00:50:37.736Z,941.62
2019-01-12T00:51:38.696Z,941.63
2019-01-12T00:52:39.108Z,941.63
2019-01-12T00:53:40.238Z,941.61
2019-01-12T00:54:40.932Z,941.63
2019-01-12T00:55:41.614Z,941.7
2019-01-12T00:56:42.601Z,941.69
2019-01-12T00:57:42.852Z,941.68
2019-01-12T00:58:43.254Z,941.71
2019-01-12T00:59:43.935Z,941.71
2019-01-12T01:00:44.621Z,941.76
2019-01-12T01:01:45.034Z,941.7
2019-01-12T01:02:45.726Z,941.69
2019-01-12T01:03:46.141Z,941.73
2019-01-12T01:04:46.825Z,941.72
2019-01-12T01:05:47.505Z,941.76
2019-01-12T01:06:48.189Z,941.75
2019-01-12T01:07:49.285Z,941.74
2019-01-12T01:08:49.687Z,941.82
2019-01-12T01:09:50.093Z,941.8
2019-01-12T01:10:50.498Z,941.9
2019-01-12T01:11:51.188Z,941.89
2019-01-12T01:12:52.142Z,941.88
2019-01-12T01:13:53.273Z,941.89
2019-01-12T01:14:54.449Z,941.95
2019-01-12T01:15:55.130Z,941.88
2019-01-12T01:16:55.811Z,941.87
2019-01-12T01:17:56.207Z,941.88
2019-01-12T01:18:57.377Z,941.9
2019-01-12T01:19:57.785Z,941.94
2019-01-12T01:20:58.192Z,941.87
2019-01-12T01:21:59.150Z,941.86
2019-01-12T01:22:59.391Z,941.87
2019-01-12T01:24:00.351Z,941.9
2019-01-12T01:25:01.040Z,941.92
2019-01-12T01:26:01.723Z,941.91
2019-01-12T01:27:03.132Z,941.92
2019-01-12T01:28:03.505Z,941.92
2019-01-12T01:29:04.211Z,941.95
2019-01-12T01:30:05.344Z,941.91
2019-01-12T01:31:06.306Z,941.93
2019-01-12T01:32:07.546Z,941.96
2019-01-12T01:33:08.063Z,942
2019-01-12T01:34:08.752Z,942.07
2019-01-12T01:35:09.473Z,942.08
2019-01-12T01:36:10.629Z,942.08
2019-01-12T01:37:11.755Z,942.12
2019-01-12T01:38:12.156Z,942.11
2019-01-12T01:39:12.837Z,942.08
2019-01-12T01:40:13.966Z,942.06
2019-01-12T01:41:14.372Z,942.03
2019-01-12T01:42:14.776Z,942.07
2019-01-12T01:43:15.458Z,942.05
2019-01-12T01:44:16.585Z,942.13
2019-01-12T01:45:18.032Z,942.14
2019-01-12T01:46:18.437Z,942.18
2019-01-12T01:47:19.563Z,942.2
2019-01-12T01:48:20.791Z,942.17
2019-01-12T01:49:21.921Z,942.2
2019-01-12T01:50:23.048Z,942.21
2019-01-12T01:51:36.036Z,942.26
2019-01-12T01:52:36.580Z,942.26
2019-01-12T01:53:37.720Z,942.21
2019-01-12T01:54:38.688Z,942.22
2019-01-12T01:55:39.828Z,942.19
2019-01-12T01:56:40.279Z,942.24
2019-01-12T01:57:40.692Z,942.26
2019-01-12T01:58:41.828Z,942.24
2019-01-12T01:59:42.965Z,942.29
2019-01-12T02:00:43.382Z,942.34
2019-01-12T02:01:43.630Z,942.27
2019-01-12T02:02:44.179Z,942.26
2019-01-12T02:03:45.317Z,942.26
2019-01-12T02:04:45.497Z,942.31
2019-01-12T02:05:46.633Z,942.27
2019-01-12T02:06:47.325Z,942.29
2019-01-12T02:07:48.023Z,942.27
2019-01-12T02:08:48.453Z,942.29
2019-01-12T02:09:49.592Z,942.32
2019-01-12T02:10:50.559Z,942.27
2019-01-12T02:11:51.526Z,942.27
2019-01-12T02:12:52.382Z,942.32
2019-01-12T02:13:53.352Z,942.31
2019-01-12T02:14:53.791Z,942.3
2019-01-12T02:15:54.762Z,942.31
2019-01-12T02:16:55.929Z,942.3
2019-01-12T02:17:57.070Z,942.36
2019-01-12T02:18:57.761Z,942.33
2019-01-12T02:19:58.176Z,942.33
2019-01-12T02:20:59.311Z,942.38
2019-01-12T02:21:59.725Z,942.31
2019-01-12T02:23:00.130Z,942.32
2019-01-12T02:24:00.819Z,942.32
2019-01-12T02:25:01.825Z,942.32
2019-01-12T02:26:02.242Z,942.41
2019-01-12T02:27:02.660Z,942.39
2019-01-12T02:28:03.796Z,942.4
2019-01-12T02:29:04.487Z,942.33
2019-01-12T02:30:05.741Z,942.32
2019-01-12T02:31:06.277Z,942.29
2019-01-12T02:32:07.260Z,942.26
2019-01-12T02:33:07.980Z,942.29
2019-01-12T02:34:09.401Z,942.3
2019-01-12T02:35:10.539Z,942.25
2019-01-12T02:36:10.793Z,942.26
2019-01-12T02:37:11.868Z,942.28
2019-01-12T02:38:12.119Z,942.32
2019-01-12T02:39:12.861Z,942.29
2019-01-12T02:40:13.552Z,942.25
2019-01-12T02:41:13.972Z,942.3
2019-01-12T02:42:14.220Z,942.27
2019-01-12T02:43:14.893Z,942.3
2019-01-12T02:44:15.870Z,942.33
2019-01-12T02:45:17.301Z,942.31
2019-01-12T02:46:18.008Z,942.25
2019-01-12T02:47:18.709Z,942.24
2019-01-12T02:48:19.848Z,942.31
2019-01-12T02:49:20.266Z,942.21
2019-01-12T02:50:20.985Z,942.27
2019-01-12T02:51:21.270Z,942.21
2019-01-12T02:52:21.976Z,942.22
2019-01-12T02:53:23.094Z,942.27
2019-01-12T02:54:23.618Z,942.31
2019-01-12T02:55:24.598Z,942.22
2019-01-12T02:56:25.572Z,942.22
2019-01-12T02:57:26.095Z,942.27
2019-01-12T02:58:27.064Z,942.22
2019-01-12T02:59:27.768Z,942.2
2019-01-12T03:00:28.740Z,942.18
2019-01-12T03:01:29.436Z,942.21
2019-01-12T03:02:30.429Z,942.22
2019-01-12T03:03:31.090Z,942.26
2019-01-12T03:04:32.082Z,942.24
2019-01-12T03:05:32.858Z,942.28
2019-01-12T03:06:33.826Z,942.25
2019-01-12T03:07:34.288Z,942.28
2019-01-12T03:08:34.984Z,942.27
2019-01-12T03:09:36.120Z,942.27
2019-01-12T03:10:36.371Z,942.29
2019-01-12T03:11:37.068Z,942.31
2019-01-12T03:12:38.210Z,942.24
2019-01-12T03:13:38.768Z,942.32
2019-01-12T03:14:39.909Z,942.3
2019-01-12T03:15:41.327Z,942.32
2019-01-12T03:16:42.315Z,942.28
2019-01-12T03:17:43.573Z,942.29
2019-01-12T03:18:44.558Z,942.24
2019-01-12T03:19:45.091Z,942.25
2019-01-12T03:20:45.787Z,942.25
2019-01-12T03:21:46.780Z,942.22
2019-01-12T03:22:47.479Z,942.26
2019-01-12T03:23:48.251Z,942.22
2019-01-12T03:24:49.235Z,942.22
2019-01-12T03:25:49.928Z,942.23
2019-01-12T03:26:50.607Z,942.23
2019-01-12T03:27:51.369Z,942.26
2019-01-12T03:28:51.904Z,942.28
2019-01-12T03:29:52.873Z,942.27
2019-01-12T03:30:53.295Z,942.27
2019-01-12T03:31:53.923Z,942.26
2019-01-12T03:32:54.515Z,942.28
2019-01-12T03:33:54.791Z,942.26
2019-01-12T03:34:55.941Z,942.31
2019-01-12T03:35:56.858Z,942.29
2019-01-12T03:36:58.111Z,942.25
2019-01-12T03:37:58.650Z,942.26
2019-01-12T03:38:59.386Z,942.29
2019-01-12T03:39:59.808Z,942.25
2019-01-12T03:41:00.836Z,942.24
2019-01-12T03:42:01.854Z,942.24
2019-01-12T03:43:02.764Z,942.22
2019-01-12T03:44:03.731Z,942.21
2019-01-12T03:45:04.869Z,942.25
2019-01-12T03:46:05.292Z,942.24
2019-01-12T03:47:06.263Z,942.18
2019-01-12T03:48:06.975Z,942.16
2019-01-12T03:49:07.668Z,942.12
2019-01-12T03:50:08.645Z,942.16
2019-01-12T03:51:08.898Z,942.09
2019-01-12T03:52:09.373Z,942.08
2019-01-12T03:53:10.177Z,942.14
2019-01-12T03:54:11.303Z,942.07
2019-01-12T03:55:12.294Z,942.11
2019-01-12T03:56:13.008Z,942.1
2019-01-12T03:57:13.269Z,942.09
2019-01-12T03:58:13.691Z,942.07
2019-01-12T03:59:14.104Z,942.06
2019-01-12T04:00:15.358Z,942.05
2019-01-12T04:01:16.471Z,942.08
2019-01-12T04:02:17.179Z,942.05
2019-01-12T04:03:17.713Z,942.1
2019-01-12T04:04:17.980Z,942.06
2019-01-12T04:05:18.954Z,942.06
2019-01-12T04:06:19.696Z,942.07
2019-01-12T04:07:20.108Z,942.05
2019-01-12T04:08:20.539Z,942.01
2019-01-12T04:09:21.227Z,941.93
2019-01-12T04:10:22.205Z,941.93
2019-01-12T04:11:22.625Z,941.93
2019-01-12T04:12:23.871Z,941.89
2019-01-12T04:13:24.287Z,941.9
2019-01-12T04:14:25.251Z,941.91
2019-01-12T04:15:26.501Z,941.92
2019-01-12T04:16:27.213Z,941.88
2019-01-12T04:17:27.745Z,941.87
2019-01-12T04:18:27.996Z,941.85
2019-01-12T04:19:28.410Z,941.89
2019-01-12T04:20:29.574Z,941.88
2019-01-12T04:21:30.261Z,941.88
2019-01-12T04:22:30.957Z,941.87
2019-01-12T04:23:31.370Z,941.87
2019-01-12T04:24:32.535Z,941.9
2019-01-12T04:25:34.646Z,941.85
2019-01-12T04:26:35.078Z,941.88
2019-01-12T04:27:35.945Z,941.88
2019-01-12T04:28:36.929Z,941.92
2019-01-12T04:29:38.083Z,941.95
2019-01-12T04:30:39.054Z,941.93
2019-01-12T04:31:39.859Z,941.89
2019-01-12T04:32:40.840Z,941.84
2019-01-12T04:33:41.253Z,941.89
2019-01-12T04:34:41.544Z,941.83
2019-01-12T04:35:41.985Z,941.85
2019-01-12T04:36:42.683Z,941.85
2019-01-12T04:37:44.096Z,941.85
2019-01-12T04:38:44.533Z,941.81
2019-01-12T04:39:44.965Z,941.8
2019-01-12T04:40:45.657Z,941.81
2019-01-12T04:41:46.687Z,941.81
2019-01-12T04:42:47.670Z,941.82
2019-01-12T04:43:48.179Z,941.8
2019-01-12T04:44:49.309Z,941.8
2019-01-12T04:45:50.110Z,941.83
2019-01-12T04:46:50.806Z,941.76
2019-01-12T04:47:51.339Z,941.8
2019-01-12T04:48:52.149Z,941.77
2019-01-12T04:49:53.229Z,941.71
2019-01-12T04:50:54.368Z,941.73
2019-01-12T04:51:54.645Z,941.74
2019-01-12T04:52:55.354Z,941.75
2019-01-12T04:53:56.048Z,941.74
2019-01-12T04:54:57.090Z,941.78
2019-01-12T04:55:57.509Z,941.75
2019-01-12T04:56:58.222Z,941.75
2019-01-12T04:57:59.192Z,941.71
2019-01-12T04:58:59.891Z,941.71
2019-01-12T05:00:01.221Z,941.76
2019-01-12T05:01:02.495Z,941.74
2019-01-12T05:02:02.918Z,941.72
2019-01-12T05:03:03.338Z,941.75
2019-01-12T05:04:04.309Z,941.69
2019-01-12T05:05:05.176Z,941.66
2019-01-12T05:06:06.172Z,941.66
2019-01-12T05:07:07.153Z,941.7
2019-01-12T05:08:08.128Z,941.67
2019-01-12T05:09:08.822Z,941.63
2019-01-12T05:10:09.544Z,941.66
2019-01-12T05:11:09.972Z,941.68
2019-01-12T05:12:10.970Z,941.69
2019-01-12T05:13:12.120Z,941.75
2019-01-12T05:14:12.673Z,941.72
2019-01-12T05:15:13.368Z,941.73
2019-01-12T05:16:14.614Z,941.72
2019-01-12T05:17:15.030Z,941.73
2019-01-12T05:18:15.565Z,941.74
2019-01-12T05:19:15.982Z,941.69
2019-01-12T05:20:16.693Z,941.74
2019-01-12T05:21:17.721Z,941.72
2019-01-12T05:22:18.984Z,941.79
2019-01-12T05:23:19.506Z,941.78
2019-01-12T05:24:20.497Z,941.79
2019-01-12T05:25:21.335Z,941.79
2019-01-12T05:26:22.032Z,941.81
2019-01-12T05:27:22.446Z,941.8
2019-01-12T05:28:23.146Z,941.83
2019-01-12T05:29:23.836Z,941.85
2019-01-12T05:30:24.528Z,941.86
2019-01-12T05:31:24.777Z,941.9
2019-01-12T05:32:25.476Z,941.89
2019-01-12T05:33:26.736Z,941.85
2019-01-12T05:34:26.986Z,941.85
2019-01-12T05:35:27.370Z,941.86
2019-01-12T05:36:27.787Z,941.86
2019-01-12T05:37:28.480Z,941.9
2019-01-12T05:38:29.176Z,941.85
2019-01-12T05:39:30.148Z,941.85
2019-01-12T05:40:30.410Z,941.84
2019-01-12T05:41:30.829Z,941.87
2019-01-12T05:42:31.977Z,941.86
2019-01-12T05:43:32.391Z,941.85
2019-01-12T05:44:32.851Z,941.88
2019-01-12T05:45:33.850Z,941.88
2019-01-12T05:46:34.042Z,941.88
2019-01-12T05:47:34.298Z,941.81
2019-01-12T05:48:35.015Z,941.89
2019-01-12T05:49:36.052Z,941.86
2019-01-12T05:50:37.021Z,941.95
2019-01-12T05:51:37.449Z,941.96
2019-01-12T05:52:38.143Z,941.89
2019-01-12T05:53:39.108Z,941.87
2019-01-12T05:54:39.529Z,941.85
2019-01-12T05:55:40.660Z,941.8
2019-01-12T05:56:40.908Z,941.88
2019-01-12T05:57:41.599Z,941.86
2019-01-12T05:58:42.167Z,941.78
2019-01-12T05:59:42.586Z,941.8
2019-01-12T06:00:43.275Z,941.8
2019-01-12T06:01:44.410Z,941.77
2019-01-12T06:02:45.381Z,941.8
2019-01-12T06:03:46.514Z,941.8
2019-01-12T06:04:47.649Z,941.77
2019-01-12T06:05:48.203Z,941.81
2019-01-12T06:06:48.617Z,941.85
2019-01-12T06:07:49.754Z,941.83
2019-01-12T06:08:50.454Z,941.8
2019-01-12T06:09:51.432Z,941.78
2019-01-12T06:10:52.402Z,941.82
2019-01-12T06:11:53.099Z,941.84
2019-01-12T06:12:53.786Z,941.81
2019-01-12T06:13:54.257Z,941.84
2019-01-12T06:14:54.670Z,941.83
2019-01-12T06:15:55.523Z,941.82
2019-01-12T06:16:56.216Z,941.82
2019-01-12T06:17:57.352Z,941.86
2019-01-12T06:18:58.045Z,941.77
2019-01-12T06:19:59.296Z,941.8
2019-01-12T06:20:59.712Z,941.78
2019-01-12T06:22:00.791Z,941.83
2019-01-12T06:23:01.208Z,941.82
2019-01-12T06:24:01.907Z,941.85
2019-01-12T06:25:02.321Z,941.85
2019-01-12T06:26:04.424Z,941.85
2019-01-12T06:27:05.111Z,941.87
2019-01-12T06:28:05.527Z,941.89
2019-01-12T06:29:05.943Z,941.95
2019-01-12T06:30:06.634Z,941.98
2019-01-12T06:31:07.330Z,942.01
2019-01-12T06:32:08.582Z,942.01
2019-01-12T06:33:09.556Z,942.03
2019-01-12T06:34:10.415Z,942.07
2019-01-12T06:35:11.381Z,942.08
2019-01-12T06:36:11.770Z,942.12
2019-01-12T06:37:12.181Z,942.17
2019-01-12T06:38:12.611Z,942.19
2019-01-12T06:39:13.036Z,942.18
2019-01-12T06:40:13.725Z,942.15
2019-01-12T06:41:14.862Z,942.17
2019-01-12T06:42:15.832Z,942.17
2019-01-12T06:43:16.800Z,942.19
2019-01-12T06:44:17.221Z,942.16
2019-01-12T06:45:18.359Z,942.1
2019-01-12T06:46:19.486Z,942.07
2019-01-12T06:47:20.186Z,942.08
2019-01-12T06:48:20.605Z,942.07
2019-01-12T06:49:21.021Z,942.13
2019-01-12T06:50:21.438Z,942.11
2019-01-12T06:51:22.132Z,942.11
2019-01-12T06:52:22.558Z,942.06
2019-01-12T06:53:23.249Z,942.09
2019-01-12T06:54:24.220Z,942.11
2019-01-12T06:55:25.238Z,942.05
2019-01-12T06:56:25.631Z,942.07
2019-01-12T06:57:26.894Z,942.14
2019-01-12T06:58:28.070Z,942.15
2019-01-12T06:59:29.208Z,942.11
2019-01-12T07:00:29.902Z,942.12
2019-01-12T07:01:30.594Z,942.09
2019-01-12T07:02:31.038Z,942.04
2019-01-12T07:03:31.457Z,942.08
2019-01-12T07:04:32.148Z,942.14
2019-01-12T07:05:32.563Z,942.08
2019-01-12T07:06:33.668Z,942.12
2019-01-12T07:07:34.807Z,942.05
2019-01-12T07:08:35.225Z,942.04
2019-01-12T07:09:35.639Z,942.08
2019-01-12T07:10:35.893Z,942.01
2019-01-12T07:11:36.607Z,942.05
2019-01-12T07:12:37.305Z,942
2019-01-12T07:13:37.720Z,941.99
2019-01-12T07:14:38.858Z,942.01
2019-01-12T07:15:39.995Z,942.04
2019-01-12T07:16:40.827Z,942
2019-01-12T07:17:41.528Z,942.01
2019-01-12T07:18:42.783Z,942.02
2019-01-12T07:19:43.477Z,941.99
2019-01-12T07:20:44.175Z,942.02
2019-01-12T07:21:45.313Z,942
2019-01-12T07:22:47.029Z,942.03
2019-01-12T07:23:48.006Z,942.05
2019-01-12T07:24:48.425Z,942.07
2019-01-12T07:25:48.845Z,942.07
2019-01-12T07:26:49.683Z,942.05
2019-01-12T07:27:50.864Z,942.01
2019-01-12T07:28:51.837Z,942.05
2019-01-12T07:29:52.808Z,942.03
2019-01-12T07:30:53.249Z,942.07
2019-01-12T07:31:53.946Z,942.05
2019-01-12T07:32:54.927Z,942.08
2019-01-12T07:33:55.632Z,942.07
2019-01-12T07:34:56.051Z,942.1
2019-01-12T07:35:56.743Z,942.08
2019-01-12T07:36:57.654Z,942.07
2019-01-12T07:37:59.078Z,942.04
2019-01-12T07:39:00.230Z,942.1
2019-01-12T07:40:00.927Z,942.09
2019-01-12T07:41:02.072Z,942.1
2019-01-12T07:42:02.769Z,942.08
2019-01-12T07:43:03.462Z,942.1
2019-01-12T07:44:04.194Z,942.08
2019-01-12T07:45:05.331Z,942.08
2019-01-12T07:46:05.748Z,942.05
2019-01-12T07:47:06.892Z,942.05
2019-01-12T07:48:07.306Z,942.12
2019-01-12T07:49:08.448Z,942.08
2019-01-12T07:50:08.984Z,942.11
2019-01-12T07:51:09.956Z,942.09
2019-01-12T07:52:10.373Z,942.09
2019-01-12T07:53:11.517Z,942.12
2019-01-12T07:54:12.493Z,942.08
2019-01-12T07:55:13.635Z,942.16
2019-01-12T07:56:14.611Z,942.13
2019-01-12T07:57:15.171Z,942.14
2019-01-12T07:58:15.589Z,942.15
2019-01-12T07:59:16.285Z,942.1
2019-01-12T08:00:17.427Z,942.08
2019-01-12T08:01:18.158Z,942.12
2019-01-12T08:02:19.299Z,942.12
2019-01-12T08:03:19.831Z,942.12
2019-01-12T08:04:20.253Z,942.16
2019-01-12T08:05:20.436Z,942.16
2019-01-12T08:06:20.867Z,942.11
2019-01-12T08:07:21.254Z,942.16
2019-01-12T08:08:21.677Z,942.2
2019-01-12T08:09:22.401Z,942.22
2019-01-12T08:10:23.104Z,942.24
2019-01-12T08:11:24.022Z,942.26
2019-01-12T08:12:24.727Z,942.29
2019-01-12T08:13:25.258Z,942.32
2019-01-12T08:14:25.680Z,942.28
2019-01-12T08:15:26.375Z,942.27
2019-01-12T08:16:27.073Z,942.29
2019-01-12T08:17:27.487Z,942.29
2019-01-12T08:18:28.195Z,942.29
2019-01-12T08:19:28.892Z,942.3
2019-01-12T08:20:29.589Z,942.32
2019-01-12T08:21:30.289Z,942.28
2019-01-12T08:22:31.029Z,942.27
2019-01-12T08:23:32.171Z,942.24
2019-01-12T08:24:33.593Z,942.2
2019-01-12T08:25:34.747Z,942.24
2019-01-12T08:26:35.484Z,942.22
2019-01-12T08:27:35.760Z,942.22
2019-01-12T08:28:36.511Z,942.21
2019-01-12T08:29:36.931Z,942.25
2019-01-12T08:30:37.629Z,942.23
2019-01-12T08:31:38.773Z,942.2
2019-01-12T08:32:39.762Z,942.21
2019-01-12T08:33:40.900Z,942.23
2019-01-12T08:34:41.873Z,942.25
2019-01-12T08:35:42.289Z,942.21
2019-01-12T08:36:43.265Z,942.2
2019-01-12T08:37:44.376Z,942.19
2019-01-12T08:38:45.360Z,942.19
2019-01-12T08:39:46.505Z,942.19
2019-01-12T08:40:47.647Z,942.19
2019-01-12T08:41:48.684Z,942.18
2019-01-12T08:42:49.107Z,942.2
2019-01-12T08:43:50.088Z,942.18
2019-01-12T08:44:50.622Z,942.19
2019-01-12T08:45:51.317Z,942.17
2019-01-12T08:46:52.022Z,942.17
2019-01-12T08:47:52.854Z,942.18
2019-01-12T08:48:53.560Z,942.14
2019-01-12T08:49:54.252Z,942.13
2019-01-12T08:50:55.232Z,942.2
2019-01-12T08:51:55.651Z,942.15
2019-01-12T08:52:56.628Z,942.17
2019-01-12T08:53:57.604Z,942.23
2019-01-12T08:54:58.303Z,942.22
2019-01-12T08:55:59.074Z,942.2
2019-01-12T08:56:59.768Z,942.17
2019-01-12T08:58:01.182Z,942.22
2019-01-12T08:59:02.158Z,942.21
2019-01-12T09:00:03.410Z,942.19
2019-01-12T09:01:03.838Z,942.21
2019-01-12T09:02:05.261Z,942.2
2019-01-12T09:03:06.242Z,942.23
2019-01-12T09:04:07.226Z,942.24
2019-01-12T09:05:07.473Z,942.21
2019-01-12T09:06:07.900Z,942.22
2019-01-12T09:07:08.324Z,942.2
2019-01-12T09:08:09.310Z,942.2
2019-01-12T09:09:10.012Z,942.16
2019-01-12T09:10:10.710Z,942.25
2019-01-12T09:11:11.133Z,942.25
2019-01-12T09:12:11.557Z,942.22
2019-01-12T09:13:12.265Z,942.24
2019-01-12T09:14:13.052Z,942.21
2019-01-12T09:15:13.804Z,942.17
2019-01-12T09:16:14.780Z,942.19
2019-01-12T09:17:15.199Z,942.21
2019-01-12T09:18:16.640Z,942.22
2019-01-12T09:19:17.058Z,942.18
2019-01-12T09:20:17.761Z,942.22
2019-01-12T09:21:18.741Z,942.23
2019-01-12T09:22:19.439Z,942.24
2019-01-12T09:23:20.862Z,942.25
2019-01-12T09:24:21.280Z,942.25
2019-01-12T09:25:22.269Z,942.25
2019-01-12T09:26:23.347Z,942.26
2019-01-12T09:27:23.767Z,942.27
2019-01-12T09:28:24.066Z,942.22
2019-01-12T09:29:25.484Z,942.23
2019-01-12T09:30:25.912Z,942.22
2019-01-12T09:31:26.332Z,942.22
2019-01-12T09:32:26.752Z,942.21
2019-01-12T09:33:27.176Z,942.21
2019-01-12T09:34:27.606Z,942.16
2019-01-12T09:35:28.024Z,942.2
2019-01-12T09:36:28.446Z,942.2
2019-01-12T09:37:29.590Z,942.2
2019-01-12T09:38:30.717Z,942.17
2019-01-12T09:39:31.970Z,942.19
2019-01-12T09:40:32.392Z,942.18
2019-01-12T09:41:32.814Z,942.17
2019-01-12T09:42:33.792Z,942.17
2019-01-12T09:43:35.215Z,942.15
2019-01-12T09:44:36.468Z,942.15
2019-01-12T09:45:36.888Z,942.16
2019-01-12T09:46:37.306Z,942.15
2019-01-12T09:47:38.724Z,942.09
2019-01-12T09:48:39.594Z,942.15
2019-01-12T09:49:40.737Z,942.11
2019-01-12T09:50:41.168Z,942.11
2019-01-12T09:51:41.865Z,942.07
2019-01-12T09:52:42.842Z,942.11
2019-01-12T09:53:44.129Z,942.04
2019-01-12T09:54:45.103Z,942.03
2019-01-12T09:55:46.081Z,942.05
2019-01-12T09:56:52.146Z,942.04
2019-01-12T09:56:58.020Z,942.02
2019-01-12T09:57:58.585Z,942.02
2019-01-12T09:58:59.571Z,942.01
2019-01-12T10:00:00.001Z,942
2019-01-12T10:01:00.738Z,941.94
2019-01-12T10:02:01.156Z,941.97
2019-01-12T10:03:01.855Z,941.97
2019-01-12T10:04:02.049Z,941.97
2019-01-12T10:05:03.020Z,941.98
2019-01-12T10:06:03.721Z,941.95
2019-01-12T10:07:04.421Z,941.98
2019-01-12T10:08:05.262Z,941.96
2019-01-12T10:09:06.408Z,941.95
2019-01-12T10:10:07.383Z,941.85
2019-01-12T10:11:07.802Z,941.86
2019-01-12T10:12:08.949Z,941.86
2019-01-12T10:13:09.647Z,941.87
2019-01-12T10:14:10.901Z,941.8
2019-01-12T10:15:11.876Z,941.79
2019-01-12T10:16:12.851Z,941.79
2019-01-12T10:17:13.832Z,941.76
2019-01-12T10:18:14.417Z,941.71
2019-01-12T10:19:15.119Z,941.74
2019-01-12T10:20:15.840Z,941.68
2019-01-12T10:21:16.816Z,941.74
2019-01-12T10:22:18.572Z,941.74
2019-01-12T10:23:19.006Z,941.74
2019-01-12T10:24:19.710Z,941.8
2019-01-12T10:25:21.176Z,941.78
2019-01-12T10:26:21.598Z,941.72
2019-01-12T10:27:22.015Z,941.71
2019-01-12T10:28:22.564Z,941.75
2019-01-12T10:29:23.265Z,941.73
2019-01-12T10:30:23.689Z,941.7
2019-01-12T10:31:24.219Z,941.74
2019-01-12T10:32:25.362Z,941.7
2019-01-12T10:33:25.785Z,941.75
2019-01-12T10:34:26.210Z,941.78
2019-01-12T10:35:26.916Z,941.79
2019-01-12T10:36:28.334Z,941.75
2019-01-12T10:37:29.311Z,941.75
2019-01-12T10:38:29.880Z,941.69
2019-01-12T10:39:31.029Z,941.7
2019-01-12T10:40:32.175Z,941.74
2019-01-12T10:41:33.151Z,941.74
2019-01-12T10:42:33.406Z,941.73
2019-01-12T10:43:33.871Z,941.7
2019-01-12T10:44:35.016Z,941.67
2019-01-12T10:45:35.771Z,941.67
2019-01-12T10:46:36.912Z,941.68
2019-01-12T10:47:38.333Z,941.67
2019-01-12T10:48:39.193Z,941.63
2019-01-12T10:49:40.448Z,941.67
2019-01-12T10:50:40.878Z,941.68
2019-01-12T10:51:41.576Z,941.67
2019-01-12T10:52:42.995Z,941.66
2019-01-12T10:53:46.397Z,941.65
2019-01-12T10:54:45.500Z,941.67
2019-01-12T10:55:46.479Z,941.67
2019-01-12T10:56:46.893Z,941.65
2019-01-12T10:57:47.590Z,941.64
2019-01-12T10:58:48.730Z,941.66
2019-01-12T10:59:49.151Z,941.62
2019-01-12T11:00:49.857Z,941.64
2019-01-12T11:01:50.299Z,941.62
2019-01-12T11:02:50.804Z,941.66
2019-01-12T11:03:51.225Z,941.64
2019-01-12T11:04:52.263Z,941.65
2019-01-12T11:05:52.645Z,941.66
2019-01-12T11:06:52.907Z,941.7
2019-01-12T11:07:53.337Z,941.68
2019-01-12T11:08:54.467Z,941.67
2019-01-12T11:09:55.608Z,941.67
2019-01-12T11:10:07.793Z,941.65
2019-01-12T11:11:08.943Z,941.62
2019-01-12T11:12:10.197Z,941.64
2019-01-12T11:13:10.903Z,941.68
2019-01-12T11:14:11.604Z,941.68
2019-01-12T11:15:12.033Z,941.67
2019-01-12T11:16:12.507Z,941.69
2019-01-12T11:17:13.472Z,941.57
2019-01-12T11:18:14.615Z,941.56
2019-01-12T11:19:15.758Z,941.56
2019-01-12T11:20:16.176Z,941.56
2019-01-12T11:21:17.330Z,941.52
2019-01-12T11:22:18.470Z,941.51
2019-01-12T11:23:19.612Z,941.53
2019-01-12T11:24:20.866Z,941.54
2019-01-12T11:25:21.841Z,941.47
2019-01-12T11:26:22.568Z,941.51
2019-01-12T11:27:23.715Z,941.51
2019-01-12T11:28:24.415Z,941.47
2019-01-12T11:29:25.847Z,941.43
2019-01-12T11:30:26.271Z,941.47
2019-01-12T11:31:27.401Z,941.47
2019-01-12T11:32:28.823Z,941.52
2019-01-12T11:33:30.244Z,941.51
2019-01-12T11:34:30.664Z,941.49
2019-01-12T11:35:31.804Z,941.5
2019-01-12T11:36:32.949Z,941.46
2019-01-12T11:37:33.651Z,941.46
2019-01-12T11:38:34.830Z,941.51
2019-01-12T11:39:35.000Z,941.47
2019-01-12T11:40:36.145Z,941.44
2019-01-12T11:41:37.208Z,941.46
2019-01-12T11:42:37.634Z,941.44
2019-01-12T11:43:38.779Z,941.43
2019-01-12T11:44:39.512Z,941.42
2019-01-12T11:45:40.485Z,941.49
2019-01-12T11:46:40.904Z,941.46
2019-01-12T11:47:41.604Z,941.44
2019-01-12T11:48:44.225Z,941.45
2019-01-12T11:49:45.365Z,941.42
2019-01-12T11:50:46.275Z,941.4
2019-01-12T11:51:46.566Z,941.43
2019-01-12T11:52:47.270Z,941.35
2019-01-12T11:53:47.690Z,941.37
2019-01-12T11:54:48.663Z,941.34
2019-01-12T11:55:49.235Z,941.33
2019-01-12T11:56:49.431Z,941.35
2019-01-12T11:57:50.409Z,941.34
2019-01-12T11:58:50.824Z,941.29
2019-01-12T11:59:52.214Z,941.26
2019-01-12T12:00:53.474Z,941.24
2019-01-12T12:01:55.266Z,941.22
2019-01-12T12:02:06.349Z,941.22
2019-01-12T12:03:07.148Z,941.17
2019-01-12T12:04:09.561Z,941.16
2019-01-12T12:04:20.779Z,941.12
2019-01-12T12:04:33.177Z,941.12
2019-01-12T12:05:33.157Z,941.1
2019-01-12T12:06:33.572Z,941.1
2019-01-12T12:07:33.998Z,941.13
2019-01-12T12:08:35.034Z,941.09
2019-01-12T12:09:35.456Z,941.05
2019-01-12T12:10:36.493Z,941.05
2019-01-12T12:11:37.086Z,941
2019-01-12T12:12:37.784Z,941.02
2019-01-12T12:13:38.482Z,940.99
2019-01-12T12:14:39.184Z,941.03
2019-01-12T12:15:40.327Z,940.98
2019-01-12T12:16:41.042Z,940.99
2019-01-12T12:17:41.512Z,940.93
2019-01-12T12:18:42.211Z,940.92
2019-01-12T12:19:42.648Z,940.83
2019-01-12T12:20:43.790Z,940.78
2019-01-12T12:21:44.939Z,940.73
2019-01-12T12:22:45.362Z,940.71
2019-01-12T12:23:45.785Z,940.65
2019-01-12T12:24:46.202Z,940.63
2019-01-12T12:25:47.342Z,940.57
2019-01-12T12:26:48.318Z,940.61
2019-01-12T12:27:48.850Z,940.6
2019-01-12T12:28:49.825Z,940.51
2019-01-12T12:29:50.851Z,940.49
2019-01-12T12:30:51.552Z,940.47
2019-01-12T12:31:52.698Z,940.4
2019-01-12T12:32:53.677Z,940.28
2019-01-12T12:33:54.156Z,940.25
2019-01-12T12:34:55.127Z,940.23
2019-01-12T12:35:55.721Z,940.17
2019-01-12T12:36:56.143Z,940.15